Main page
METAR-TAF:

METAR-TAF

Airports :

Columbia Gorge Regional Airport

The Dalles, Oregon, United States

latitude: 45-37-07N, longitude: 121-10-02W, elevation: 246 ft

Current weather observation

The report was made 33 minutes ago, at 19:53 UTC
Wind 9 mph from the East/Southeast
Temperature 81°F
Humidity 18%
Pressure 29.94 in. Hg
Visibility: 10 miles
Clear sky

METAR: KDLS 191953Z AUTO 11008KT 10SM CLR 27/01 A2994 RMK AO2 SLP137 T02720006

Time: 13:26 (20:26 UTC)

Forecast

The report was made 3 hours and 6 minutes ago, at 17:20 UTC
Forecast valid from 19 at 18 UTC to 20 at 18 UTC
Wind 7 mph from the East/Northeast
Visibility: 6 miles
Clear sky
From 20 at 0400 UTC
Wind 5 mph from variable directions
Visibility: 6 miles
Clear sky

TAF: KDLS 191720Z 1918/2018 06006KT P6SM SKC FM200400 VRB04KT P6SM SKC

Weather observations and forecasts of more than 4000 airports (METAR and TAF reports).

The available stations are represented by yellow and red dots on the map.

Hover mouse over dot to see the name of the station.

Then click to see weather observations and forecasts.

To change the map : click on the green buttons with a black cross to zoom in, on the green button with a dash to zoom out, or on the green arrows for adjacent maps.


METAR-TAF: